createdAt,value
2018-01-30T00:00:06.693Z,1018.92
2018-01-30T00:01:08.545Z,1019.27
2018-01-30T00:02:22.672Z,1019.30
2018-01-30T00:03:24.541Z,1019.19
2018-01-30T00:04:26.392Z,1019.15
2018-01-30T00:05:28.241Z,1019.03
2018-01-30T00:06:30.033Z,1019.11
2018-01-30T00:07:31.844Z,1019.12
2018-01-30T00:08:33.715Z,1019.11
2018-01-30T00:09:35.584Z,1019.15
2018-01-30T00:10:37.455Z,1019.13
2018-01-30T00:11:51.595Z,1019.13
2018-01-30T00:12:53.449Z,1019.32
2018-01-30T00:13:55.300Z,1019.29
2018-01-30T00:14:57.149Z,1019.38
2018-01-30T00:15:58.940Z,1019.37
2018-01-30T00:17:00.755Z,1019.31
2018-01-30T00:18:02.644Z,1019.48
2018-01-30T00:19:04.492Z,1019.16
2018-01-30T00:20:06.363Z,1019.27
2018-01-30T00:21:20.486Z,1019.24
2018-01-30T00:22:22.358Z,1019.25
2018-01-30T00:23:24.228Z,1019.28
2018-01-30T00:24:26.076Z,1019.47
2018-01-30T00:25:27.864Z,1019.41
2018-01-30T00:26:29.672Z,1019.56
2018-01-30T00:27:31.542Z,1019.49
2018-01-30T00:28:33.392Z,1019.51
2018-01-30T00:29:35.261Z,1019.56
2018-01-30T00:30:49.401Z,1019.54
2018-01-30T00:31:51.257Z,1019.53
2018-01-30T00:32:53.111Z,1019.70
2018-01-30T00:33:54.980Z,1019.67
2018-01-30T00:34:56.789Z,1019.95
2018-01-30T00:35:58.583Z,1020.23
2018-01-30T00:37:00.451Z,1019.87
2018-01-30T00:38:02.305Z,1019.81
2018-01-30T00:39:04.152Z,1019.93
2018-01-30T00:40:18.274Z,1019.99
2018-01-30T00:41:20.133Z,1019.95
2018-01-30T00:42:22.003Z,1020.07
2018-01-30T00:43:23.848Z,1020.05
2018-01-30T00:44:25.638Z,1020.12
2018-01-30T00:45:27.431Z,1020.16
2018-01-30T00:46:29.283Z,1020.20
2018-01-30T00:47:31.126Z,1020.13
2018-01-30T00:48:32.973Z,1020.10
2018-01-30T00:49:47.149Z,1020.21
2018-01-30T00:50:49.014Z,1020.27
2018-01-30T00:51:50.862Z,1020.46
2018-01-30T00:52:52.708Z,1020.23
2018-01-30T00:53:54.501Z,1020.13
2018-01-30T00:54:56.294Z,1020.30
2018-01-30T00:55:58.165Z,1020.23
2018-01-30T00:57:00.038Z,1020.33
2018-01-30T00:58:01.908Z,1020.38
2018-01-30T00:59:16.048Z,1020.40
2018-01-30T01:00:17.899Z,1020.42
2018-01-30T01:01:19.753Z,1020.44
2018-01-30T01:02:21.609Z,1020.53
2018-01-30T01:03:23.418Z,1020.58
2018-01-30T01:04:25.232Z,1020.61
2018-01-30T01:05:27.099Z,1020.58
2018-01-30T01:06:28.950Z,1020.75
2018-01-30T01:07:30.821Z,1020.61
2018-01-30T01:08:44.959Z,1020.64
2018-01-30T01:09:46.815Z,1020.65
2018-01-30T01:10:48.667Z,1020.83
2018-01-30T01:11:50.521Z,1020.87
2018-01-30T01:12:52.328Z,1020.99
2018-01-30T01:13:54.115Z,1020.88
2018-01-30T01:14:55.968Z,1020.91
2018-01-30T01:15:57.815Z,1020.76
2018-01-30T01:16:59.665Z,1020.95
2018-01-30T01:18:13.806Z,1020.88
2018-01-30T01:19:15.674Z,1020.85
2018-01-30T01:20:17.523Z,1020.87
2018-01-30T01:21:19.375Z,1020.85
2018-01-30T01:22:21.184Z,1021.00
2018-01-30T01:23:22.969Z,1021.21
2018-01-30T01:24:24.821Z,1021.06
2018-01-30T01:25:26.672Z,1021.59
2018-01-30T01:26:28.539Z,1021.19
2018-01-30T01:27:42.661Z,1021.27
2018-01-30T01:28:44.535Z,1021.16
2018-01-30T01:29:46.408Z,1021.07
2018-01-30T01:30:48.270Z,1020.84
2018-01-30T01:31:50.064Z,1020.97
2018-01-30T01:32:51.851Z,1021.10
2018-01-30T01:33:53.721Z,1021.04
2018-01-30T01:34:55.565Z,1020.91
2018-01-30T01:35:57.420Z,1020.88
2018-01-30T01:37:11.542Z,1020.90
2018-01-30T01:38:13.396Z,1020.82
2018-01-30T01:39:15.266Z,1020.82
2018-01-30T01:40:17.108Z,1020.84
2018-01-30T01:41:18.901Z,1020.86
2018-01-30T01:42:20.708Z,1020.85
2018-01-30T01:43:22.560Z,1020.84
2018-01-30T01:44:24.426Z,1020.80
2018-01-30T01:45:26.270Z,1020.75
2018-01-30T01:46:40.388Z,1020.60
2018-01-30T01:47:42.242Z,1020.97
2018-01-30T01:48:44.094Z,1020.78
2018-01-30T01:49:45.951Z,1020.78
2018-01-30T01:50:47.756Z,1020.77
2018-01-30T01:51:49.567Z,1020.78
2018-01-30T01:52:51.435Z,1020.74
2018-01-30T01:53:53.283Z,1020.86
2018-01-30T01:54:55.132Z,1020.84
2018-01-30T01:56:09.318Z,1020.99
2018-01-30T01:57:11.168Z,1020.99
2018-01-30T01:58:13.042Z,1021.01
2018-01-30T01:59:14.883Z,1020.95
2018-01-30T02:00:16.692Z,1020.97
2018-01-30T02:01:18.499Z,1020.89
2018-01-30T02:02:20.345Z,1021.13
2018-01-30T02:03:22.200Z,1020.95
2018-01-30T02:04:24.064Z,1021.00
2018-01-30T02:05:38.185Z,1020.99
2018-01-30T02:06:40.037Z,1021.02
2018-01-30T02:07:41.907Z,1021.01
2018-01-30T02:08:43.752Z,1021.16
2018-01-30T02:09:45.581Z,1021.08
2018-01-30T02:10:47.349Z,1020.97
2018-01-30T02:11:49.194Z,1021.02
2018-01-30T02:12:51.066Z,1021.03
2018-01-30T02:13:52.907Z,1021.08
2018-01-30T02:15:07.034Z,1021.09
2018-01-30T02:16:08.899Z,1021.07
2018-01-30T02:17:10.754Z,1021.12
2018-01-30T02:18:12.621Z,1021.30
2018-01-30T02:19:14.429Z,1021.02
2018-01-30T02:20:16.221Z,1021.17
2018-01-30T02:21:18.086Z,1021.22
2018-01-30T02:22:19.959Z,1021.13
2018-01-30T02:23:21.826Z,1021.23
2018-01-30T02:24:35.948Z,1021.20
2018-01-30T02:25:37.816Z,1021.23
2018-01-30T02:26:39.665Z,1021.32
2018-01-30T02:27:41.517Z,1021.48
2018-01-30T02:28:43.329Z,1021.25
2018-01-30T02:29:45.138Z,1021.17
2018-01-30T02:30:47.007Z,1021.37
2018-01-30T02:31:48.875Z,1021.21
2018-01-30T02:32:50.725Z,1021.37
2018-01-30T02:34:04.842Z,1021.23
2018-01-30T02:35:06.688Z,1021.28
2018-01-30T02:36:08.539Z,1021.28
2018-01-30T02:37:10.391Z,1021.25
2018-01-30T02:38:12.200Z,1021.23
2018-01-30T02:39:13.984Z,1021.27
2018-01-30T02:40:15.836Z,1021.25
2018-01-30T02:41:17.650Z,1021.32
2018-01-30T02:42:19.457Z,1021.22
2018-01-30T02:43:33.576Z,1021.38
2018-01-30T02:44:35.425Z,1021.28
2018-01-30T02:45:37.295Z,1021.48
2018-01-30T02:46:39.161Z,1021.19
2018-01-30T02:47:40.953Z,1021.36
2018-01-30T02:48:42.745Z,1021.44
2018-01-30T02:49:44.609Z,1021.47
2018-01-30T02:50:46.460Z,1021.59
2018-01-30T02:51:48.303Z,1021.43
2018-01-30T02:53:02.427Z,1021.37
2018-01-30T02:54:04.287Z,1021.54
2018-01-30T02:55:06.133Z,1021.49
2018-01-30T02:56:08.027Z,1021.47
2018-01-30T02:57:09.776Z,1021.71
2018-01-30T02:58:11.569Z,1021.66
2018-01-30T02:59:13.432Z,1021.74
2018-01-30T03:00:15.288Z,1021.81
2018-01-30T03:01:17.153Z,1021.58
2018-01-30T03:02:31.321Z,1021.66
2018-01-30T03:03:33.219Z,1021.72
2018-01-30T03:04:35.085Z,1021.80
2018-01-30T03:05:36.931Z,1021.99
2018-01-30T03:06:38.719Z,1021.87
2018-01-30T03:07:40.509Z,1021.89
2018-01-30T03:08:42.359Z,1021.89
2018-01-30T03:09:44.233Z,1022.02
2018-01-30T03:10:46.060Z,1022.54
2018-01-30T03:12:00.230Z,1022.06
2018-01-30T03:13:02.101Z,1022.04
2018-01-30T03:14:03.968Z,1022.22
2018-01-30T03:15:05.845Z,1022.00
2018-01-30T03:16:07.655Z,1022.08
2018-01-30T03:17:09.450Z,1022.07
2018-01-30T03:18:11.301Z,1022.14
2018-01-30T03:19:13.167Z,1022.17
2018-01-30T03:20:15.024Z,1022.17
2018-01-30T03:21:29.190Z,1022.13
2018-01-30T03:22:31.057Z,1022.15
2018-01-30T03:23:32.908Z,1022.28
2018-01-30T03:24:34.753Z,1022.25
2018-01-30T03:25:36.547Z,1022.46
2018-01-30T03:26:38.354Z,1022.26
2018-01-30T03:27:40.205Z,1022.30
2018-01-30T03:28:42.067Z,1022.33
2018-01-30T03:29:43.918Z,1022.34
2018-01-30T03:30:58.109Z,1022.23
2018-01-30T03:31:59.955Z,1022.34
2018-01-30T03:33:01.821Z,1022.35
2018-01-30T03:34:03.666Z,1022.52
2018-01-30T03:35:05.457Z,1022.45
2018-01-30T03:36:07.261Z,1022.46
2018-01-30T03:37:09.109Z,1022.55
2018-01-30T03:38:11.017Z,1022.61
2018-01-30T03:39:12.868Z,1022.49
2018-01-30T03:40:27.049Z,1022.52
2018-01-30T03:41:28.901Z,1022.59
2018-01-30T03:42:30.755Z,1022.48
2018-01-30T03:43:32.647Z,1022.49
2018-01-30T03:44:34.439Z,1022.49
2018-01-30T03:45:36.249Z,1022.51
2018-01-30T03:46:38.111Z,1022.58
2018-01-30T03:47:39.957Z,1022.61
2018-01-30T03:48:41.813Z,1022.53
2018-01-30T03:49:55.957Z,1022.48
2018-01-30T03:50:57.821Z,1022.48
2018-01-30T03:51:59.670Z,1022.47
2018-01-30T03:53:01.518Z,1022.40
2018-01-30T03:54:03.307Z,1022.74
2018-01-30T03:55:05.100Z,1022.54
2018-01-30T03:56:06.963Z,1022.57
2018-01-30T03:57:08.811Z,1022.56
2018-01-30T03:58:10.667Z,1022.53
2018-01-30T03:59:24.786Z,1022.60
2018-01-30T04:00:26.659Z,1022.69
2018-01-30T04:01:28.506Z,1022.78
2018-01-30T04:02:30.354Z,1022.84
2018-01-30T04:03:32.149Z,1023.04
2018-01-30T04:04:33.961Z,1023.03
2018-01-30T04:05:35.828Z,1022.97
2018-01-30T04:06:37.692Z,1022.96
2018-01-30T04:07:39.542Z,1023.12
2018-01-30T04:08:53.662Z,1023.13
2018-01-30T04:09:55.512Z,1023.12
2018-01-30T04:10:57.369Z,1023.12
2018-01-30T04:11:59.220Z,1023.31
2018-01-30T04:13:01.030Z,1023.18
2018-01-30T04:14:02.817Z,1023.13
2018-01-30T04:15:04.667Z,1023.16
2018-01-30T04:16:06.514Z,1023.20
2018-01-30T04:17:08.364Z,1023.18
2018-01-30T04:18:22.483Z,1023.25
2018-01-30T04:19:24.337Z,1023.38
2018-01-30T04:20:26.189Z,1023.23
2018-01-30T04:21:28.039Z,1023.31
2018-01-30T04:22:29.850Z,1023.32
2018-01-30T04:23:31.663Z,1023.30
2018-01-30T04:24:33.515Z,1023.38
2018-01-30T04:25:35.383Z,1023.42
2018-01-30T04:26:37.233Z,1023.43
2018-01-30T04:27:51.371Z,1023.58
2018-01-30T04:28:53.247Z,1023.44
2018-01-30T04:29:55.098Z,1023.58
2018-01-30T04:30:56.970Z,1023.45
2018-01-30T04:31:58.756Z,1023.54
2018-01-30T04:33:00.549Z,1023.48
2018-01-30T04:34:02.416Z,1023.66
2018-01-30T04:35:04.272Z,1023.58
2018-01-30T04:36:06.145Z,1023.66
2018-01-30T04:37:20.284Z,1023.59
2018-01-30T04:38:22.137Z,1023.59
2018-01-30T04:39:24.002Z,1023.60
2018-01-30T04:40:25.853Z,1023.57
2018-01-30T04:41:27.645Z,1023.50
2018-01-30T04:42:29.459Z,1023.51
2018-01-30T04:43:31.325Z,1023.42
2018-01-30T04:44:33.180Z,1023.47
2018-01-30T04:45:35.046Z,1023.45
2018-01-30T04:46:49.216Z,1023.44
2018-01-30T04:47:51.090Z,1023.52
2018-01-30T04:48:52.940Z,1023.62
2018-01-30T04:49:54.789Z,1023.46
2018-01-30T04:50:56.571Z,1023.50
2018-01-30T04:51:58.361Z,1023.51
2018-01-30T04:53:00.213Z,1023.48
2018-01-30T04:54:02.067Z,1023.63
2018-01-30T04:55:03.915Z,1023.53
2018-01-30T04:56:18.029Z,1023.56
2018-01-30T04:57:19.884Z,1023.61
2018-01-30T04:58:21.740Z,1023.73
2018-01-30T04:59:23.595Z,1023.63
2018-01-30T05:00:25.404Z,1023.71
2018-01-30T05:01:27.196Z,1023.69
2018-01-30T05:02:29.038Z,1023.66
2018-01-30T05:03:30.857Z,1023.60
2018-01-30T05:04:32.695Z,1023.83
2018-01-30T05:05:46.786Z,1023.83
2018-01-30T05:06:48.641Z,1023.64
2018-01-30T05:07:50.497Z,1023.69
2018-01-30T05:08:52.369Z,1023.72
2018-01-30T05:09:54.180Z,1023.75
2018-01-30T05:10:55.982Z,1023.68
2018-01-30T05:11:57.832Z,1023.76
2018-01-30T05:12:59.698Z,1023.75
2018-01-30T05:14:01.559Z,1023.69
2018-01-30T05:15:15.690Z,1023.72
2018-01-30T05:16:17.545Z,1023.79
2018-01-30T05:17:19.400Z,1023.74
2018-01-30T05:18:21.256Z,1023.68
2018-01-30T05:19:23.068Z,1024.30
2018-01-30T05:20:24.877Z,1023.94
2018-01-30T05:21:26.709Z,1023.82
2018-01-30T05:22:28.558Z,1023.84
2018-01-30T05:23:30.414Z,1023.92
2018-01-30T05:24:44.551Z,1023.90
2018-01-30T05:25:46.409Z,1023.99
2018-01-30T05:26:48.277Z,1024.03
2018-01-30T05:27:50.124Z,1024.03
2018-01-30T05:28:51.917Z,1024.10
2018-01-30T05:29:53.726Z,1024.05
2018-01-30T05:30:55.572Z,1024.10
2018-01-30T05:31:57.445Z,1024.08
2018-01-30T05:32:59.313Z,1024.10
2018-01-30T05:34:13.435Z,1024.20
2018-01-30T05:35:15.292Z,1024.14
2018-01-30T05:36:17.162Z,1024.16
2018-01-30T05:37:19.015Z,1024.09
2018-01-30T05:38:20.826Z,1023.93
2018-01-30T05:39:22.657Z,1024.06
2018-01-30T05:40:24.520Z,1024.17
2018-01-30T05:41:26.374Z,1024.18
2018-01-30T05:42:28.229Z,1024.05
2018-01-30T05:43:42.347Z,1023.99
2018-01-30T05:44:44.219Z,1024.06
2018-01-30T05:45:46.068Z,1024.01
2018-01-30T05:46:47.936Z,1024.00
2018-01-30T05:47:49.733Z,1024.13
2018-01-30T05:48:51.541Z,1024.02
2018-01-30T05:49:53.408Z,1024.05
2018-01-30T05:50:55.262Z,1024.05
2018-01-30T05:51:57.130Z,1024.02
2018-01-30T05:53:11.302Z,1024.08
2018-01-30T05:54:13.169Z,1024.13
2018-01-30T05:55:15.024Z,1024.08
2018-01-30T05:56:16.871Z,1024.13
2018-01-30T05:57:18.781Z,1024.14
2018-01-30T05:58:20.685Z,1024.19
2018-01-30T05:59:22.552Z,1024.23
2018-01-30T06:00:24.408Z,1024.32
2018-01-30T06:01:26.283Z,1024.22
2018-01-30T06:02:40.402Z,1024.29
2018-01-30T06:03:42.246Z,1024.28
2018-01-30T06:04:44.103Z,1024.37
2018-01-30T06:05:45.976Z,1024.28
2018-01-30T06:06:47.787Z,1024.26
2018-01-30T06:07:49.598Z,1024.43
2018-01-30T06:08:51.453Z,1024.44
2018-01-30T06:09:53.323Z,1024.50
2018-01-30T06:10:55.196Z,1024.32
2018-01-30T06:12:09.368Z,1024.39
2018-01-30T06:13:11.238Z,1024.58
2018-01-30T06:14:13.091Z,1024.45
2018-01-30T06:15:14.959Z,1024.48
2018-01-30T06:16:16.749Z,1024.57
2018-01-30T06:17:18.539Z,1024.54
2018-01-30T06:18:20.409Z,1024.54
2018-01-30T06:19:22.262Z,1024.51
2018-01-30T06:20:24.134Z,1024.57
2018-01-30T06:21:38.249Z,1024.80
2018-01-30T06:22:40.107Z,1024.65
2018-01-30T06:23:41.956Z,1024.66
2018-01-30T06:24:43.809Z,1024.64
2018-01-30T06:25:45.604Z,1024.62
2018-01-30T06:26:47.415Z,1024.66
2018-01-30T06:27:49.289Z,1024.68
2018-01-30T06:28:51.155Z,1024.69
2018-01-30T06:29:53.016Z,1024.61
2018-01-30T06:31:07.155Z,1024.82
2018-01-30T06:32:09.019Z,1024.70
2018-01-30T06:33:10.867Z,1024.65
2018-01-30T06:34:12.721Z,1024.66
2018-01-30T06:35:14.512Z,1024.68
2018-01-30T06:36:16.302Z,1024.78
2018-01-30T06:37:18.175Z,1024.72
2018-01-30T06:38:20.051Z,1024.74
2018-01-30T06:39:21.924Z,1024.78
2018-01-30T06:40:36.043Z,1024.88
2018-01-30T06:41:37.918Z,1024.82
2018-01-30T06:42:39.788Z,1024.77
2018-01-30T06:43:41.650Z,1024.80
2018-01-30T06:44:43.462Z,1024.82
2018-01-30T06:45:45.255Z,1024.81
2018-01-30T06:46:47.126Z,1024.75
2018-01-30T06:47:48.975Z,1024.73
2018-01-30T06:48:50.834Z,1024.79
2018-01-30T06:50:04.973Z,1024.79
2018-01-30T06:51:06.830Z,1024.80
2018-01-30T06:52:08.687Z,1024.74
2018-01-30T06:53:10.539Z,1024.76
2018-01-30T06:54:12.332Z,1024.90
2018-01-30T06:55:14.123Z,1024.89
2018-01-30T06:56:15.984Z,1024.86
2018-01-30T06:57:17.829Z,1024.80
2018-01-30T06:58:19.688Z,1024.87
2018-01-30T06:59:33.816Z,1024.90
2018-01-30T07:00:35.674Z,1024.82
2018-01-30T07:01:37.546Z,1024.90
2018-01-30T07:02:39.400Z,1024.94
2018-01-30T07:03:41.193Z,1024.88
2018-01-30T07:04:42.988Z,1024.91
2018-01-30T07:05:44.834Z,1024.92
2018-01-30T07:06:46.694Z,1024.94
2018-01-30T07:07:48.551Z,1024.94
2018-01-30T07:09:02.676Z,1024.91
2018-01-30T07:10:04.533Z,1024.93
2018-01-30T07:11:06.393Z,1024.98
2018-01-30T07:12:08.302Z,1024.96
2018-01-30T07:13:10.062Z,1024.94
2018-01-30T07:14:11.852Z,1025.00
2018-01-30T07:15:13.701Z,1025.02
2018-01-30T07:16:15.554Z,1025.00
2018-01-30T07:17:17.407Z,1024.97
2018-01-30T07:18:31.531Z,1025.02
2018-01-30T07:19:33.384Z,1025.05
2018-01-30T07:20:35.242Z,1025.04
2018-01-30T07:21:37.113Z,1025.07
2018-01-30T07:22:38.907Z,1025.18
2018-01-30T07:23:40.701Z,1025.14
2018-01-30T07:24:42.555Z,1025.10
2018-01-30T07:25:44.433Z,1025.12
2018-01-30T07:26:46.289Z,1025.17
2018-01-30T07:28:00.436Z,1025.19
2018-01-30T07:29:02.293Z,1025.30
2018-01-30T07:30:04.148Z,1025.22
2018-01-30T07:31:06.032Z,1025.28
2018-01-30T07:32:07.822Z,1025.25
2018-01-30T07:33:09.644Z,1025.35
2018-01-30T07:34:11.513Z,1025.33
2018-01-30T07:35:13.383Z,1025.35
2018-01-30T07:36:15.245Z,1025.33
2018-01-30T07:37:29.373Z,1025.37
2018-01-30T07:38:31.226Z,1025.42
2018-01-30T07:39:33.080Z,1025.41
2018-01-30T07:40:34.939Z,1025.38
2018-01-30T07:41:36.736Z,1025.46
2018-01-30T07:42:38.530Z,1025.42
2018-01-30T07:43:40.398Z,1025.38
2018-01-30T07:44:42.252Z,1025.45
2018-01-30T07:45:44.114Z,1025.49
2018-01-30T07:46:58.241Z,1025.40
2018-01-30T07:48:00.096Z,1025.32
2018-01-30T07:49:01.953Z,1025.39
2018-01-30T07:50:03.826Z,1025.40
2018-01-30T07:51:05.627Z,1025.46
2018-01-30T07:52:07.443Z,1025.57
2018-01-30T07:53:09.317Z,1025.58
2018-01-30T07:54:11.189Z,1025.51
2018-01-30T07:55:13.052Z,1025.48
2018-01-30T07:56:27.247Z,1025.54
2018-01-30T07:57:29.123Z,1025.68
2018-01-30T07:58:30.980Z,1025.65
2018-01-30T07:59:32.840Z,1025.69
2018-01-30T08:00:34.632Z,1025.74
2018-01-30T08:01:36.430Z,1025.81
2018-01-30T08:02:38.288Z,1025.67
2018-01-30T08:03:40.162Z,1025.71
2018-01-30T08:04:42.015Z,1025.76
2018-01-30T08:05:56.213Z,1025.76
2018-01-30T08:06:58.086Z,1025.82
2018-01-30T08:07:59.942Z,1025.78
2018-01-30T08:09:01.816Z,1025.86
2018-01-30T08:10:03.616Z,1025.93
2018-01-30T08:11:05.427Z,1025.81
2018-01-30T08:12:07.279Z,1025.89
2018-01-30T08:13:09.135Z,1025.92
2018-01-30T08:14:11.019Z,1025.92
2018-01-30T08:15:25.207Z,1026.03
2018-01-30T08:16:27.065Z,1025.95
2018-01-30T08:17:28.922Z,1025.93
2018-01-30T08:18:30.796Z,1025.90
2018-01-30T08:19:32.611Z,1026.01
2018-01-30T08:20:34.408Z,1026.00
2018-01-30T08:21:36.255Z,1026.01
2018-01-30T08:22:38.110Z,1026.08
2018-01-30T08:23:39.971Z,1026.09
2018-01-30T08:24:54.096Z,1026.11
2018-01-30T08:25:55.954Z,1026.20
2018-01-30T08:26:57.814Z,1026.21
2018-01-30T08:27:59.667Z,1026.16
2018-01-30T08:29:01.466Z,1026.18
2018-01-30T08:30:03.281Z,1026.25
2018-01-30T08:31:05.151Z,1026.27
2018-01-30T08:32:07.010Z,1026.30
2018-01-30T08:33:08.890Z,1026.29
2018-01-30T08:34:23.038Z,1026.36
2018-01-30T08:35:24.892Z,1026.31
2018-01-30T08:36:26.743Z,1026.26
2018-01-30T08:37:28.600Z,1026.32
2018-01-30T08:38:30.421Z,1026.37
2018-01-30T08:39:32.239Z,1026.40
2018-01-30T08:40:34.114Z,1026.35
2018-01-30T08:41:36.017Z,1026.36
2018-01-30T08:42:37.867Z,1026.46
2018-01-30T08:43:52.027Z,1026.45
2018-01-30T08:44:53.863Z,1026.40
2018-01-30T08:45:55.721Z,1026.48
2018-01-30T08:46:57.572Z,1026.54
2018-01-30T08:47:59.372Z,1026.50
2018-01-30T08:49:01.186Z,1026.48
2018-01-30T08:50:03.037Z,1026.47
2018-01-30T08:51:04.910Z,1026.37
2018-01-30T08:52:06.767Z,1026.40
2018-01-30T08:53:20.910Z,1026.41
2018-01-30T08:54:22.766Z,1026.48
2018-01-30T08:55:24.630Z,1026.46
2018-01-30T08:56:26.501Z,1026.46
2018-01-30T08:57:28.297Z,1026.46
2018-01-30T08:58:30.090Z,1026.52
2018-01-30T08:59:31.943Z,1026.51
2018-01-30T09:00:33.796Z,1026.52
2018-01-30T09:01:35.654Z,1026.52
2018-01-30T09:02:49.776Z,1026.63
2018-01-30T09:03:51.637Z,1026.61
2018-01-30T09:04:53.511Z,1026.65
2018-01-30T09:05:55.394Z,1026.67
2018-01-30T09:06:57.208Z,1026.66
2018-01-30T09:07:59.006Z,1026.65
2018-01-30T09:09:00.874Z,1026.73
2018-01-30T09:10:02.728Z,1026.68
2018-01-30T09:11:04.592Z,1026.70
2018-01-30T09:12:18.774Z,1026.82
2018-01-30T09:13:20.590Z,1026.72
2018-01-30T09:14:22.470Z,1026.85
2018-01-30T09:15:24.346Z,1026.81
2018-01-30T09:16:26.148Z,1026.77
2018-01-30T09:17:27.960Z,1026.72
2018-01-30T09:18:29.830Z,1026.74
2018-01-30T09:19:31.692Z,1026.72
2018-01-30T09:20:33.575Z,1026.73
2018-01-30T09:21:47.715Z,1026.67
2018-01-30T09:22:49.576Z,1026.75
2018-01-30T09:23:51.448Z,1026.80
2018-01-30T09:24:53.307Z,1026.81
2018-01-30T09:25:55.107Z,1026.82
2018-01-30T09:26:56.897Z,1026.83
2018-01-30T09:27:58.753Z,1026.93
2018-01-30T09:29:00.605Z,1026.80
2018-01-30T09:30:02.468Z,1026.83
2018-01-30T09:31:16.612Z,1026.84
2018-01-30T09:32:18.469Z,1026.85
2018-01-30T09:33:20.347Z,1026.80
2018-01-30T09:34:22.220Z,1026.82
2018-01-30T09:35:24.032Z,1026.89
2018-01-30T09:36:25.831Z,1026.78
2018-01-30T09:37:27.688Z,1026.86
2018-01-30T09:38:29.564Z,1026.89
2018-01-30T09:39:31.425Z,1026.95
2018-01-30T09:40:45.548Z,1026.88
2018-01-30T09:41:47.408Z,1026.87
2018-01-30T09:42:49.267Z,1026.80
2018-01-30T09:43:51.123Z,1026.79
2018-01-30T09:44:52.936Z,1026.86
2018-01-30T09:45:54.734Z,1026.95
2018-01-30T09:46:56.611Z,1026.95
2018-01-30T09:47:58.464Z,1026.95
2018-01-30T09:49:00.323Z,1026.89
2018-01-30T09:50:14.450Z,1026.84
2018-01-30T09:51:16.315Z,1026.86
2018-01-30T09:52:18.170Z,1026.95
2018-01-30T09:53:20.043Z,1027.03
2018-01-30T09:54:21.845Z,1027.03
2018-01-30T09:55:23.663Z,1027.04
2018-01-30T09:56:25.536Z,1027.00
2018-01-30T09:57:27.393Z,1027.02
2018-01-30T09:58:29.245Z,1027.02
2018-01-30T09:59:43.367Z,1026.98
2018-01-30T10:00:45.228Z,1027.10
2018-01-30T10:01:47.086Z,1027.04
2018-01-30T10:02:48.944Z,1027.07
2018-01-30T10:03:50.766Z,1027.07
2018-01-30T10:04:52.582Z,1027.03
2018-01-30T10:05:54.449Z,1027.05
2018-01-30T10:06:56.265Z,1027.07
2018-01-30T10:07:58.104Z,1027.10
2018-01-30T10:09:12.228Z,1027.24
2018-01-30T10:10:14.089Z,1027.14
2018-01-30T10:11:15.967Z,1027.15
2018-01-30T10:12:17.819Z,1027.13
2018-01-30T10:13:19.623Z,1027.13
2018-01-30T10:14:21.407Z,1027.10
2018-01-30T10:15:23.268Z,1027.19
2018-01-30T10:16:25.115Z,1027.32
2018-01-30T10:17:26.975Z,1027.25
2018-01-30T10:18:41.109Z,1027.21
2018-01-30T10:19:42.983Z,1027.24
2018-01-30T10:20:44.842Z,1027.03
2018-01-30T10:21:46.696Z,1027.00
2018-01-30T10:22:48.500Z,1026.97
2018-01-30T10:23:50.312Z,1027.11
2018-01-30T10:24:52.170Z,1027.22
2018-01-30T10:25:53.988Z,1027.20
2018-01-30T10:26:55.805Z,1027.13
2018-01-30T10:28:09.949Z,1027.07
2018-01-30T10:29:11.813Z,1027.10
2018-01-30T10:30:13.684Z,1027.09
2018-01-30T10:31:15.543Z,1027.06
2018-01-30T10:32:17.342Z,1026.97
2018-01-30T10:33:19.160Z,1027.02
2018-01-30T10:34:21.032Z,1027.14
2018-01-30T10:35:22.895Z,1027.12
2018-01-30T10:36:24.752Z,1027.01
2018-01-30T10:37:38.873Z,1027.01
2018-01-30T10:38:40.736Z,1027.00
2018-01-30T10:39:42.595Z,1026.91
2018-01-30T10:40:44.470Z,1026.93
2018-01-30T10:41:46.268Z,1027.00
2018-01-30T10:42:48.069Z,1027.12
2018-01-30T10:43:49.923Z,1027.12
2018-01-30T10:44:51.776Z,1026.98
2018-01-30T10:45:53.636Z,1027.13
2018-01-30T10:47:07.777Z,1027.07
2018-01-30T10:48:09.643Z,1027.14
2018-01-30T10:49:11.493Z,1026.94
2018-01-30T10:50:13.348Z,1026.98
2018-01-30T10:51:15.148Z,1026.97
2018-01-30T10:52:16.944Z,1026.95
2018-01-30T10:53:18.821Z,1027.02
2018-01-30T10:54:20.697Z,1027.01
2018-01-30T10:55:22.583Z,1026.93
2018-01-30T10:56:36.726Z,1026.95
2018-01-30T10:57:38.585Z,1027.10
2018-01-30T10:58:40.466Z,1027.01
2018-01-30T10:59:42.346Z,1027.01
2018-01-30T11:00:44.133Z,1027.01
2018-01-30T11:01:45.933Z,1027.05
2018-01-30T11:02:47.805Z,1026.95
2018-01-30T11:03:49.666Z,1026.92
2018-01-30T11:04:51.545Z,1026.93
2018-01-30T11:06:05.688Z,1026.86
2018-01-30T11:07:07.551Z,1026.77
2018-01-30T11:08:09.411Z,1026.79
2018-01-30T11:09:11.289Z,1026.83
2018-01-30T11:10:13.163Z,1026.93
2018-01-30T11:11:14.934Z,1026.88
2018-01-30T11:12:16.793Z,1026.86
2018-01-30T11:13:18.648Z,1026.84
2018-01-30T11:14:20.512Z,1026.83
2018-01-30T11:15:34.635Z,1026.76
2018-01-30T11:16:36.496Z,1026.77
2018-01-30T11:17:38.356Z,1026.75
2018-01-30T11:18:40.233Z,1026.84
2018-01-30T11:19:42.051Z,1026.80
2018-01-30T11:20:43.865Z,1026.80
2018-01-30T11:21:45.742Z,1026.89
2018-01-30T11:22:47.597Z,1026.76
2018-01-30T11:23:49.471Z,1026.85
2018-01-30T11:25:03.599Z,1026.83
2018-01-30T11:26:05.455Z,1026.82
2018-01-30T11:27:07.319Z,1026.79
2018-01-30T11:28:09.197Z,1026.79
2018-01-30T11:29:11.014Z,1026.78
2018-01-30T11:30:12.812Z,1026.72
2018-01-30T11:31:14.687Z,1026.75
2018-01-30T11:32:16.568Z,1026.67
2018-01-30T11:33:18.442Z,1026.70
2018-01-30T11:34:32.573Z,1026.73
2018-01-30T11:35:34.453Z,1026.82
2018-01-30T11:36:36.308Z,1026.72
2018-01-30T11:37:38.194Z,1026.79
2018-01-30T11:38:39.987Z,1026.78
2018-01-30T11:39:41.787Z,1026.69
2018-01-30T11:40:43.663Z,1026.68
2018-01-30T11:41:45.535Z,1026.75
2018-01-30T11:42:47.399Z,1026.66
2018-01-30T11:44:01.542Z,1026.66
2018-01-30T11:45:03.425Z,1026.66
2018-01-30T11:46:05.301Z,1026.67
2018-01-30T11:47:07.162Z,1026.67
2018-01-30T11:48:08.980Z,1026.59
2018-01-30T11:49:10.797Z,1026.62
2018-01-30T11:50:12.675Z,1026.59
2018-01-30T11:51:14.549Z,1026.51
2018-01-30T11:52:16.407Z,1026.57
2018-01-30T11:53:30.556Z,1026.53
2018-01-30T11:54:32.411Z,1026.54
2018-01-30T11:55:34.269Z,1026.47
2018-01-30T11:56:36.145Z,1026.51
2018-01-30T11:57:37.949Z,1026.51
2018-01-30T11:58:39.764Z,1026.45
2018-01-30T11:59:41.619Z,1026.35
2018-01-30T12:00:43.493Z,1026.39
2018-01-30T12:01:45.368Z,1026.43
2018-01-30T12:02:59.503Z,1026.35
2018-01-30T12:04:01.381Z,1026.38
2018-01-30T12:05:03.254Z,1026.42
2018-01-30T12:06:05.113Z,1026.36
2018-01-30T12:07:06.914Z,1026.33
2018-01-30T12:08:08.733Z,1026.40
2018-01-30T12:09:10.605Z,1026.29
2018-01-30T12:10:12.458Z,1026.28
2018-01-30T12:11:14.324Z,1026.30
2018-01-30T12:12:28.471Z,1026.28
2018-01-30T12:13:30.350Z,1026.16
2018-01-30T12:14:32.226Z,1026.26
2018-01-30T12:15:34.084Z,1026.28
2018-01-30T12:16:35.882Z,1026.22
2018-01-30T12:17:37.683Z,1026.24
2018-01-30T12:18:39.554Z,1026.21
2018-01-30T12:19:41.433Z,1026.24
2018-01-30T12:20:43.316Z,1026.21
2018-01-30T12:21:57.462Z,1026.27
2018-01-30T12:22:59.328Z,1026.21
2018-01-30T12:24:01.206Z,1026.12
2018-01-30T12:25:03.084Z,1026.16
2018-01-30T12:26:04.899Z,1026.27
2018-01-30T12:27:06.695Z,1026.25
2018-01-30T12:28:08.569Z,1026.31
2018-01-30T12:29:10.425Z,1026.36
2018-01-30T12:30:12.285Z,1026.50
2018-01-30T12:31:26.436Z,1026.45
2018-01-30T12:32:28.311Z,1026.38
2018-01-30T12:33:30.166Z,1026.45
2018-01-30T12:34:32.024Z,1026.45
2018-01-30T12:35:33.823Z,1026.34
2018-01-30T12:36:35.615Z,1026.34
2018-01-30T12:37:37.474Z,1026.39
2018-01-30T12:38:39.325Z,1026.33
2018-01-30T12:39:41.189Z,1026.30
2018-01-30T12:40:55.313Z,1026.28
2018-01-30T12:41:57.188Z,1026.32
2018-01-30T12:42:59.049Z,1026.29
2018-01-30T12:44:00.931Z,1026.34